Rakitna Rakitna

Učna pot


Verjetnost toče več informacij Hail probability


Moja kamera več informacij My webcam


Cestna kamera več informacij Road camera


ARSO, spremljajte nas več informacij


Obiščite še:

Template documentacija
in prenos

in še drugo stran



Posebna pozornost v zvezi z vremenskimi dogajanji ni potrebna.    Posebna pozornost v zvezi z vremenskimi dogajanji ni potrebna.

METAR v bližini

   
LJLJ - Ljubljana
Posodobljeno: 19-08-2019 16:00
delno oblačno  
delno oblačno  
   Veter: različen 3.7 km/h
Veter: različen 3.7 km/h
Temperatura: 30°C
toplotni index: 31°C
Točka rosišča: 17°C
Vlažnost: 46%
Zračni tlak: 1017 hPa
Oblaki: delno oblačno
Vidljivost: več kot 10 km
Podrobnosti o oblakih: delno oblačno 5000 ft
LJLJ 191400Z VRB02KT 9999 SCT050 30/17 Q1017 NOSIG
LJCE - Cerklje ob Krki
Posodobljeno: 19-08-2019 16:30
jasno  
jasno  
   Veter: različen 1.9 km/h
Veter: različen 1.9 km/h
Temperatura: 32°C
toplotni index: 33°C
Točka rosišča: 19°C
Vlažnost: 46%
Zračni tlak: 1016 hPa
Oblaki: jasno
Vidljivost: več kot 10 km
Podrobnosti o oblakih: jasno
LJCE 191430Z AUTO VRB01KT 9999 NCD 32/19 Q1016
LJMB - Maribor
Posodobljeno: 19-08-2019 16:30
delno oblačno  
delno oblačno  
   Veter: SV 7.4 km/h
Veter: SV 7.4 km/h
Temperatura: 29°C
toplotni index: 29°C
Točka rosišča: 17°C
Vlažnost: 48%
Zračni tlak: 1017 hPa
Oblaki: delno oblačno
Vidljivost: več kot 10 km
Podrobnosti o oblakih: nekaj oblakov 4600 ft,
delno oblačno 25000 ft
LJMB 191430Z 05004KT 010V100 9999 FEW046 SCT250 29/17 Q1017
LJPZ - Portorož
Posodobljeno: 19-08-2019 16:30
nekaj oblakov  
nekaj oblakov  
   Veter: SZ 11.1 km/h
Veter: SZ 11.1 km/h
Temperatura: 30°C
toplotni index: 33°C
Točka rosišča: 21°C
Vlažnost: 59%
Zračni tlak: 1016 hPa
Oblaki: nekaj oblakov
Vidljivost: več kot 10 km
Podrobnosti o oblakih: nekaj oblakov 5000 ft
LJPZ 191430Z 32006KT 290V350 9999 FEW050 30/21 Q1016
LDRI - Rijeka, Airport, Croatia
Posodobljeno: 19-08-2019 16:30
jasno  
jasno  
   Veter: Zahod 9.3 km/h
Veter: Zahod 9.3 km/h
Temperatura: 29°C
toplotni index: 29°C
Točka rosišča: 15°C
Vlažnost: 43%
Zračni tlak: 1017 hPa
Vidljivost: več kot 10 km
Podrobnosti o oblakih: jasno
LDRI 191430Z 26005KT 240V330 CAVOK 29/15 Q1017
LOWK - Klagenfurt, Airport, Avstia
Posodobljeno: 19-08-2019 16:20
nekaj oblakov  
nekaj oblakov  
   Veter: Vzhod 11.1 km/h
Veter: Vzhod 11.1 km/h
Temperatura: 30°C
toplotni index: 30°C
Točka rosišča: 16°C
Vlažnost: 43%
Zračni tlak: 1016 hPa
Oblaki: nekaj oblakov
Vidljivost: več kot 10 km
Podrobnosti o oblakih: nekaj oblakov 6000 ft
LOWK 191420Z 09006KT 050V160 9999 FEW060 30/16 Q1016 NOSIG

Script developed by  Saratoga-weather.org Adapted for the template by  Weerstation Leuven

Vremenski podatki so objavljeni na:

Weather Underground

Slovenska vremenska mreža

WeatherlinkIP

MapView

Geostik

Oprema, ki se uporablja:

Vremenska postaja
Davis VP2+ ventilirana

Vremenski program
WeatherLink

Vremenski server
Shuttle XS35V4

Ponudnik
Vremensko društvo ZEVS

Davis VP2+ ventilirana

WeatherLink

Shuttle XS35V4

Vremensko društvo ZEVS

Meteorološki podatki vremenske postaje Rakitna so neuradni, meteorološka postaja sama pa ni del državne mreže Agencije Republike Slovenije za okolje (ARSO),
je pa vključena v Vremensko društvo ZEVS. Prikazani podatki so izmerjeni točno, vendar so zgolj informativni in nimajo značaja uradnega podatka.

Podatke meri vremenska postaja "Davis VP2+ ventilirana" od 05.03.2011 dalje.

Opozarjamo, da ne prevzamemo odgovornosti za morebitno nastalo škodo, ki bi nastala zaradi odločitve, sprejete na osnovi teh podatkov!